Wednesday, June 01, 2022

Cessna 172P Skyhawk, N9635L: Incident occurred May 31, 2022 in Anchorage, Alaska

Federal Aviation Administration / Flight Standards District Office; Anchorage, Alaska

Aircraft crashed under unknown circumstances on Figure Eight Lake.

Civil Air Patrol 


Date: 31-MAY-22
Time: 19:30:00Z
Regis#: N9635L
Aircraft Make: CESSNA
Aircraft Model: 172
Event Type: INCIDENT
Highest Injury: NONE
Aircraft Missing: No
Damage: UNKNOWN
Activity: INSTRUCTION
Flight Phase: EN ROUTE (ENR)
Operation: 91
Flight Number: CAP503
City: ANCHORAGE
State: ALASKA

1 comment:

  1. Track:
    https://globe.adsbexchange.com/?icao=ad6a5d&lat=61.326&lon=-150.476&zoom=13.1&showTrace=2022-05-31&trackLabels
    METAR:
    PANC 311953Z VRB03KT 10SM SCT250 18/06 A3019
    PANC 311853Z 34004KT 10SM BKN250 16/07 A3020

    ReplyDelete

All messages must be civil in tone; if critical, must be constructive. This is a place where we learn what not to do next time. Personal attacks and hate speech directed at the NTSB investigators, FAA investigators, Designated Pilot Examiners, Kathryn, as well as other members of the aviation blog, are unacceptable because they are not constructive. Messages that harass, abuse or threaten other persons, such as threats to cause bodily harm, or that contain obscene or otherwise objectionable content, may result in the loss of your posting privileges.